Wednesday, December 19, 2018, 10:50 AM EST
Back to Local

KFKL, Franklin, Venango Regional Airport

Location: Franklin, PA, United States Lat: 41.383
Local Time: 10:50 AM EST (15:50 GMT) Lon: -79.867
Time Zone: US/Eastern Elev: 1538 ft

Show me the last for .
Show Coded

Time T Td Feel RH Dir Speed Gust Alt SLP Vis Weather Sky Remarks
2018-12-19 09:56 - - - 0 - Calm - 30.07 - 10 CLR None
2018-12-19 08:56 - - - 0 200° 5 - 30.07 - 10 CLR None
2018-12-19 07:56 - - - 0 180° 5 - 30.05 - 10 CLR None
2018-12-19 06:56 - - - 0 190° 8 - 30.04 - 10 CLR None
2018-12-19 05:56 - - - 0 - Calm - 30.05 - 10 CLR None
2018-12-19 04:56 - - - 0 180° 6 - 30.07 - 10 CLR None
2018-12-19 03:56 - - - 0 190° 6 - 30.09 - 10 CLR None
2018-12-19 02:56 - - - 0 150° 3 - 30.09 - 10 CLR None
2018-12-19 01:56 - - - 0 180° 5 - 30.11 - 10 CLR None
2018-12-19 00:56 - - - 0 190° 6 - 30.12 - 10 CLR None
2018-12-18 23:56 - - - 0 - Calm - 30.12 - 10 CLR None
2018-12-18 22:56 - - - 0 - - - - - 10 CLR None
2018-12-18 21:56 - - - 0 - Calm - 30.13 - 10 CLR None
2018-12-18 20:56 - - - 0 120° 3 - 30.12 - 10 CLR None
2018-12-18 19:56 - - - 0 - Calm - 30.12 - 10 CLR None
2018-12-18 18:56 - - - 0 - Calm - 30.15 - 10 CLR None
2018-12-18 17:56 - - - 0 - Calm - 30.16 - 10 CLR None
2018-12-18 16:56 - - - 0 300° 3 - 30.17 - 10 CLR None
2018-12-18 15:56 - - - 0 300° 7 - - - 10 CLR None
2018-12-18 14:56 - - - 0 - - - - - 10 CLR None
2018-12-18 13:56 - - - 0 330° 5 - 30.14 - 10 CLR None
2018-12-18 12:56 - - - 0 Variable 7 - 30.15 - 10 CLR None
2018-12-18 12:15 - - - 0 Variable 7 - 30.16 - 10 SCT028 None
2018-12-18 11:56 - - - 0 - - - - - 10 BKN028 None
2018-12-18 11:42 - - - 0 270° 6 - - - 10 BKN028 None
2018-12-18 11:26 - - - 0 310° 8 - - - 10 SCT028 None
2018-12-18 11:16 - - - 0 320° 9 - 30.18 - 10 BKN028 None
2018-12-18 11:06 - - - 0 300° 6 - 30.18 - 10 SCT026 None
2018-12-18 10:56 - - - 0 360° 8 - 30.19 - 10 BKN026 None

Support USWX by starting your Amazon purchase here.